Arkansas City, Kansas
Current Conditions -  °F | °C
As of 4:54 AM on Saturday 25 Oct 2014 (Local Time) from KWLD Reporting Station
Clear Clear  
Wind Chill: 61°   Ceiling: Unl
Heat Index: 61°   Visibility: 10mi
Dew Point: 59°   Wind: 5mph
Humidity: 93%   Direction: 140°SE
Pressure: 30.04"   Gusts: NA
Location:  37.06°N, 97.04°W
Report Text: KWLD 250954Z AUTO 14004KT 10SM CLR 16/15 A3004 RMK AO2 SLP163 T01610150
Loading
Personal Weather Stations






























Interactive Weather Map
Tropical Storm Tracking
New forecast layout! Learn more

10-Day Weather Forecast

Advertisements
Track Severe Weather on mobile